Time;durP1;ratioP1;P1;durP2;ratioP2;P2;SDS_P1;SDS_P2;PMS_P1;PMS_P2;Temp;Humidity;BMP_temperature;BMP_pressure;BME280_temperature;BME280_humidity;BME280_pressure;Samples;Min_cycle;Max_cycle;Signal;HPM_P1;HPM_P2
2023/09/14 00:00:22;;;;;;;3.33;0.70;;;22.70;86.20;;;;;;5052977;28;20044;-86
2023/09/14 00:02:48;;;;;;;1.77;0.55;;;22.70;86.30;;;;;;5054289;28;20033;-86
2023/09/14 00:05:15;;;;;;;2.60;0.57;;;22.70;86.20;;;;;;5054148;28;20068;-86
2023/09/14 00:07:40;;;;;;;2.30;0.60;;;22.70;86.30;;;;;;5053794;28;20059;-85
2023/09/14 00:10:06;;;;;;;1.95;0.50;;;22.70;86.60;;;;;;5054304;28;20029;-86
2023/09/14 00:12:32;;;;;;;2.70;0.80;;;22.70;86.70;;;;;;5053057;28;20032;-85
2023/09/14 00:14:58;;;;;;;2.50;0.60;;;22.70;86.70;;;;;;5053641;28;20515;-85
2023/09/14 00:17:23;;;;;;;3.33;0.80;;;22.70;86.50;;;;;;5053546;28;20483;-85
2023/09/14 00:19:49;;;;;;;2.35;0.40;;;22.70;86.40;;;;;;5054118;28;20041;-85
2023/09/14 00:22:15;;;;;;;1.73;0.60;;;22.70;86.30;;;;;;5052918;28;20037;-86
2023/09/14 00:24:40;;;;;;;3.38;0.60;;;22.70;86.40;;;;;;5053830;28;20024;-85
2023/09/14 00:27:06;;;;;;;2.60;0.70;;;22.70;86.40;;;;;;5053817;28;20599;-85
2023/09/14 00:29:31;;;;;;;1.80;0.60;;;22.60;85.20;;;;;;5053726;28;20036;-85
2023/09/14 00:31:57;;;;;;;3.75;0.95;;;22.60;85.40;;;;;;5052536;28;20055;-85
2023/09/14 00:34:23;;;;;;;3.17;0.52;;;22.50;85.70;;;;;;5053357;28;20394;-84
2023/09/14 00:36:48;;;;;;;3.28;0.88;;;22.50;85.30;;;;;;5053475;28;20044;-85
2023/09/14 00:39:14;;;;;;;3.03;0.60;;;22.50;85.70;;;;;;5052372;28;20087;-85
2023/09/14 00:41:40;;;;;;;4.45;0.82;;;22.50;85.60;;;;;;5053759;28;20095;-84
2023/09/14 00:44:06;;;;;;;2.65;0.55;;;22.50;85.70;;;;;;5053710;28;20040;-84
2023/09/14 00:46:32;;;;;;;4.55;1.00;;;22.40;85.90;;;;;;5051947;28;20111;-84
2023/09/14 00:48:58;;;;;;;5.82;0.98;;;22.40;85.10;;;;;;5053291;28;20033;-85
2023/09/14 00:51:27;;;;;;;3.67;0.70;;;22.30;84.90;;;;;;5053352;28;20033;-84
2023/09/14 00:53:54;;;;;;;4.88;0.63;;;22.30;85.50;;;;;;5052572;28;20031;-85
2023/09/14 00:56:20;;;;;;;2.65;0.70;;;22.30;85.20;;;;;;5053241;28;20051;-85
2023/09/14 00:58:47;;;;;;;2.97;0.68;;;22.20;85.50;;;;;;5053452;28;20084;-84
2023/09/14 01:01:14;;;;;;;3.90;0.88;;;22.30;85.60;;;;;;5053506;28;20111;-84
2023/09/14 01:03:40;;;;;;;3.33;0.70;;;22.30;85.20;;;;;;5052122;28;20488;-83
2023/09/14 01:06:06;;;;;;;2.97;0.68;;;22.30;84.30;;;;;;5056411;28;20037;-83
2023/09/14 01:08:32;;;;;;;3.33;0.77;;;22.20;85.30;;;;;;5057148;28;20465;-84
2023/09/14 01:10:58;;;;;;;3.63;0.55;;;22.20;86.40;;;;;;5057430;28;20029;-84
2023/09/14 01:13:46;;;;;;;3.78;0.70;;;22.20;86.30;;;;;;5057347;28;20488;-84
2023/09/14 01:16:30;;;;;;;4.10;0.73;;;22.20;86.10;;;;;;5057409;28;20025;-84
2023/09/14 01:19:20;;;;;;;3.38;0.50;;;22.30;86.20;;;;;;5057384;28;20116;-84
2023/09/14 01:22:13;;;;;;;2.25;0.52;;;22.30;86.40;;;;;;5055136;28;20068;-84
2023/09/14 01:24:50;;;;;;;4.15;0.90;;;22.40;86.60;;;;;;5025427;28;20060;-83
2023/09/14 01:27:16;;;;;;;2.42;0.57;;;22.40;85.40;;;;;;5057185;28;20078;-84
2023/09/14 01:29:41;;;;;;;2.95;0.45;;;22.30;84.80;;;;;;5057092;28;20033;-83
2023/09/14 01:32:07;;;;;;;1.92;0.60;;;22.30;85.50;;;;;;5055636;28;20025;-84
2023/09/14 01:34:33;;;;;;;2.60;0.65;;;22.40;86.00;;;;;;5055805;28;20049;-85
2023/09/14 01:37:03;;;;;;;3.33;0.70;;;22.30;86.10;;;;;;5056674;28;20037;-84
2023/09/14 01:39:31;;;;;;;3.75;0.75;;;22.30;84.80;;;;;;5055619;28;20119;-83
2023/09/14 01:41:58;;;;;;;2.30;0.73;;;22.20;84.80;;;;;;5056844;28;20032;-84
2023/09/14 01:44:27;;;;;;;2.50;0.70;;;22.10;85.10;;;;;;5055547;28;20067;-84
2023/09/14 01:46:54;;;;;;;2.63;0.60;;;22.20;85.70;;;;;;5056478;28;20106;-84
2023/09/14 01:49:19;;;;;;;2.53;0.60;;;22.20;86.00;;;;;;5056299;28;20048;-86
2023/09/14 01:51:45;;;;;;;2.08;0.43;;;22.20;85.90;;;;;;5056630;28;20025;-85
2023/09/14 01:54:11;;;;;;;2.50;0.57;;;22.30;86.00;;;;;;5038909;28;20025;-86
2023/09/14 01:56:37;;;;;;;1.85;0.50;;;22.20;86.10;;;;;;5055494;28;20031;-86
2023/09/14 01:59:03;;;;;;;1.88;0.50;;;22.30;86.20;;;;;;5056483;28;20040;-86
2023/09/14 02:01:29;;;;;;;3.30;0.70;;;22.40;86.30;;;;;;5056348;28;20118;-86
2023/09/14 02:03:54;;;;;;;1.70;0.45;;;22.30;85.90;;;;;;5055376;28;20478;-86
2023/09/14 02:06:20;;;;;;;2.38;0.75;;;22.30;85.90;;;;;;5056596;28;20087;-86
2023/09/14 02:08:46;;;;;;;1.63;0.60;;;22.30;85.90;;;;;;5056267;28;20051;-86
2023/09/14 02:11:13;;;;;;;3.20;0.75;;;22.30;86.70;;;;;;5056292;28;20104;-85
2023/09/14 02:13:42;;;;;;;2.92;0.70;;;22.40;85.90;;;;;;5056480;28;20030;-85
2023/09/14 02:16:08;;;;;;;1.70;0.35;;;22.40;86.00;;;;;;5054121;28;20128;-86
2023/09/14 02:18:33;;;;;;;3.70;0.68;;;22.30;86.00;;;;;;5054659;28;20040;-86
2023/09/14 02:20:59;;;;;;;2.28;0.55;;;22.30;86.10;;;;;;5055917;28;20048;-86
2023/09/14 02:23:25;;;;;;;2.65;0.50;;;22.30;85.90;;;;;;5056145;28;20111;-86
2023/09/14 02:25:51;;;;;;;3.78;0.70;;;22.30;86.10;;;;;;5055892;28;20028;-85
2023/09/14 02:28:20;;;;;;;4.03;0.60;;;22.30;86.00;;;;;;5056052;28;20037;-86
2023/09/14 02:30:46;;;;;;;2.00;0.52;;;22.30;86.00;;;;;;5056012;28;20040;-85
2023/09/14 02:33:12;;;;;;;3.75;0.70;;;22.30;86.10;;;;;;5055971;28;20033;-85
2023/09/14 02:35:44;;;;;;;2.33;0.68;;;22.30;86.10;;;;;;5055929;28;20029;-85
2023/09/14 02:38:10;;;;;;;1.98;0.60;;;22.30;86.20;;;;;;5055272;28;20029;-84
2023/09/14 02:40:36;;;;;;;2.38;0.60;;;22.30;86.30;;;;;;5056037;28;20119;-85
2023/09/14 02:43:02;;;;;;;3.40;0.68;;;22.30;86.40;;;;;;5055844;28;20086;-85
2023/09/14 02:45:28;;;;;;;3.20;0.68;;;22.30;86.30;;;;;;5055475;28;20497;-85
2023/09/14 02:47:54;;;;;;;2.80;0.60;;;22.30;86.30;;;;;;5055531;28;20054;-85
2023/09/14 02:50:19;;;;;;;4.35;1.00;;;22.30;86.00;;;;;;5055506;28;20473;-86
2023/09/14 02:52:45;;;;;;;2.60;0.70;;;22.30;86.00;;;;;;5056200;28;20493;-85
2023/09/14 02:55:11;;;;;;;2.67;0.68;;;22.20;85.90;;;;;;5056366;28;20075;-86
2023/09/14 02:57:37;;;;;;;1.83;0.45;;;22.20;85.70;;;;;;5064264;28;20462;-86
2023/09/14 03:00:06;;;;;;;3.17;0.77;;;22.10;85.90;;;;;;5066690;28;20131;-85
2023/09/14 03:02:32;;;;;;;2.20;0.57;;;22.20;86.10;;;;;;5067033;28;20033;-86
2023/09/14 03:04:57;;;;;;;3.58;0.70;;;22.20;86.30;;;;;;5049424;28;20087;-86
2023/09/14 03:07:23;;;;;;;3.80;0.93;;;22.20;86.30;;;;;;5046224;28;20502;-86
2023/09/14 03:09:49;;;;;;;3.25;0.63;;;22.20;86.20;;;;;;5057326;28;20480;-86
2023/09/14 03:12:14;;;;;;;4.15;0.65;;;22.20;86.20;;;;;;5055427;28;20032;-86
2023/09/14 03:14:40;;;;;;;2.58;0.80;;;22.10;86.30;;;;;;5055234;28;20039;-85
2023/09/14 03:17:05;;;;;;;3.60;0.63;;;22.20;86.40;;;;;;5054948;28;20025;-86
2023/09/14 03:19:31;;;;;;;2.33;0.70;;;22.10;86.30;;;;;;5054776;28;20128;-86
2023/09/14 03:21:57;;;;;;;4.25;0.85;;;22.10;86.50;;;;;;5054809;28;20043;-86
2023/09/14 03:24:23;;;;;;;2.53;0.65;;;22.10;86.30;;;;;;5055089;28;20029;-86
2023/09/14 03:26:48;;;;;;;3.00;0.80;;;22.10;86.40;;;;;;5054724;28;20508;-86
2023/09/14 03:29:14;;;;;;;2.13;0.60;;;22.10;86.60;;;;;;5053041;28;20516;-86
2023/09/14 03:31:39;;;;;;;2.80;0.70;;;22.10;86.70;;;;;;5054529;28;20060;-85
2023/09/14 03:34:07;;;;;;;2.88;0.63;;;22.20;86.50;;;;;;5054611;28;20128;-86
2023/09/14 03:36:33;;;;;;;2.30;0.65;;;22.10;86.20;;;;;;5054516;28;20036;-85
2023/09/14 03:38:58;;;;;;;3.28;0.90;;;22.10;86.10;;;;;;5054441;28;20033;-85
2023/09/14 03:41:24;;;;;;;2.65;0.70;;;22.00;86.00;;;;;;5054771;28;20518;-84
2023/09/14 03:43:49;;;;;;;2.95;0.75;;;22.00;86.70;;;;;;5053394;28;20029;-84
2023/09/14 03:46:16;;;;;;;2.05;0.55;;;21.90;86.30;;;;;;5053639;28;20040;-85
2023/09/14 03:48:41;;;;;;;2.00;0.73;;;21.80;86.40;;;;;;5053180;28;20382;-85
2023/09/14 03:51:07;;;;;;;2.90;0.70;;;21.80;86.70;;;;;;5054129;28;20045;-85
2023/09/14 03:53:33;;;;;;;3.10;0.50;;;21.80;86.90;;;;;;5054375;28;20388;-84
2023/09/14 03:55:59;;;;;;;2.08;0.50;;;21.90;87.00;;;;;;5053201;28;20033;-85
2023/09/14 03:58:26;;;;;;;3.00;0.52;;;21.90;87.10;;;;;;5054045;28;20489;-84
2023/09/14 04:00:51;;;;;;;3.40;0.88;;;21.90;87.00;;;;;;5053079;28;20044;-84
2023/09/14 04:03:17;;;;;;;3.42;0.93;;;21.90;87.10;;;;;;5053168;28;20025;-84
2023/09/14 04:05:44;;;;;;;2.55;0.82;;;21.90;87.00;;;;;;5054243;28;20059;-84
2023/09/14 04:08:10;;;;;;;3.45;0.90;;;21.90;86.80;;;;;;5053854;28;20499;-83
2023/09/14 04:10:37;;;;;;;3.03;0.70;;;21.90;86.80;;;;;;5053960;28;20028;-84
2023/09/14 04:13:28;;;;;;;1.95;0.60;;;21.80;86.80;;;;;;5054359;28;20035;-85
2023/09/14 04:15:54;;;;;;;1.92;0.50;;;21.80;86.90;;;;;;5053287;28;20490;-86
2023/09/14 04:18:20;;;;;;;3.13;0.82;;;21.90;86.90;;;;;;5054021;28;20029;-85
2023/09/14 04:20:50;;;;;;;3.03;0.70;;;21.80;86.90;;;;;;5053972;28;20040;-85
2023/09/14 04:23:16;;;;;;;3.20;0.73;;;21.80;86.90;;;;;;5054110;28;20021;-86
2023/09/14 04:25:44;;;;;;;1.33;0.60;;;21.80;87.00;;;;;;5052492;28;20368;-86
2023/09/14 04:28:14;;;;;;;2.35;0.68;;;21.80;86.90;;;;;;5052535;28;20033;-85
2023/09/14 04:30:44;;;;;;;3.25;0.70;;;21.70;86.90;;;;;;5053914;28;20055;-84
2023/09/14 04:33:15;;;;;;;3.45;0.75;;;21.80;86.70;;;;;;5053767;28;20033;-85
2023/09/14 04:35:41;;;;;;;3.33;1.10;;;21.70;86.80;;;;;;5052557;28;20382;-85
2023/09/14 04:38:07;;;;;;;4.28;0.90;;;21.70;87.00;;;;;;5053379;28;20029;-85
2023/09/14 04:40:41;;;;;;;1.88;0.77;;;21.70;86.50;;;;;;5053485;28;20040;-84
2023/09/14 04:43:08;;;;;;;5.25;1.08;;;21.70;86.20;;;;;;5053572;28;20103;-85
2023/09/14 04:45:34;;;;;;;1.85;0.70;;;21.70;86.70;;;;;;5053167;28;20040;-85
2023/09/14 04:48:00;;;;;;;4.43;0.88;;;21.70;86.80;;;;;;5053021;28;20041;-85
2023/09/14 04:50:27;;;;;;;3.08;0.80;;;21.70;87.00;;;;;;5035508;28;20494;-86
2023/09/14 04:52:54;;;;;;;4.10;0.60;;;21.70;87.00;;;;;;5053490;28;20120;-85
2023/09/14 04:55:21;;;;;;;2.10;0.63;;;21.60;87.10;;;;;;5052373;28;20036;-85
2023/09/14 04:57:46;;;;;;;1.55;0.70;;;21.50;87.30;;;;;;5053640;28;20087;-86
2023/09/14 05:00:13;;;;;;;3.47;0.82;;;21.60;87.60;;;;;;5053364;28;20033;-85
2023/09/14 05:02:39;;;;;;;3.00;0.80;;;21.60;87.50;;;;;;5070053;28;20064;-86
2023/09/14 05:05:06;;;;;;;1.73;0.88;;;21.60;87.50;;;;;;5053959;28;20078;-86
2023/09/14 05:07:32;;;;;;;2.03;0.70;;;21.60;87.60;;;;;;5054251;28;20112;-86
2023/09/14 05:09:58;;;;;;;3.70;0.88;;;21.60;87.30;;;;;;5054306;28;20053;-86
2023/09/14 05:12:24;;;;;;;2.63;0.90;;;21.60;87.40;;;;;;5052808;28;20115;-86
2023/09/14 05:14:49;;;;;;;2.70;0.70;;;21.60;87.40;;;;;;5053369;28;20478;-86
2023/09/14 05:17:15;;;;;;;3.85;1.00;;;21.70;87.50;;;;;;5053115;28;20033;-85
2023/09/14 05:19:42;;;;;;;4.30;1.10;;;21.70;87.60;;;;;;5053807;28;20166;-85
2023/09/14 05:22:09;;;;;;;2.88;0.82;;;21.60;86.40;;;;;;5053293;28;20037;-86
2023/09/14 05:24:34;;;;;;;3.47;0.95;;;21.60;87.00;;;;;;5053240;28;20040;-85
2023/09/14 05:27:00;;;;;;;2.97;0.88;;;21.60;87.10;;;;;;5053130;28;20033;-86
2023/09/14 05:29:26;;;;;;;3.88;0.98;;;21.60;87.00;;;;;;5053043;28;20100;-86
2023/09/14 05:31:52;;;;;;;2.58;1.05;;;21.50;87.00;;;;;;5053300;28;20060;-85
2023/09/14 05:34:18;;;;;;;3.10;0.90;;;21.50;87.20;;;;;;5053260;28;20025;-86
2023/09/14 05:36:44;;;;;;;3.55;0.73;;;21.50;87.40;;;;;;5051596;28;20132;-86
2023/09/14 05:39:09;;;;;;;2.67;0.98;;;21.50;87.30;;;;;;5051884;28;20127;-86
2023/09/14 05:41:35;;;;;;;2.72;0.98;;;21.50;87.50;;;;;;5053567;28;20123;-86
2023/09/14 05:44:05;;;;;;;1.60;0.77;;;21.50;87.10;;;;;;5053430;28;20469;-86
2023/09/14 05:46:30;;;;;;;4.88;1.10;;;21.60;87.10;;;;;;5050979;28;20133;-86
2023/09/14 05:48:56;;;;;;;3.10;0.70;;;21.50;86.60;;;;;;5053231;28;20064;-86
2023/09/14 05:51:23;;;;;;;3.25;1.15;;;21.50;86.20;;;;;;5052839;28;20052;-86
2023/09/14 05:53:49;;;;;;;3.17;0.95;;;21.50;86.60;;;;;;5056787;28;20028;-86
2023/09/14 05:56:14;;;;;;;3.90;0.95;;;21.50;86.30;;;;;;5071906;28;20096;-84
2023/09/14 05:58:40;;;;;;;1.85;0.70;;;21.40;86.60;;;;;;5056472;28;20055;-84
2023/09/14 06:01:06;;;;;;;1.98;0.50;;;21.40;86.70;;;;;;5056187;28;20025;-75
2023/09/14 06:03:31;;;;;;;2.28;0.63;;;21.40;87.70;;;;;;5072510;28;20122;-75
2023/09/14 06:05:57;;;;;;;2.67;0.93;;;21.70;88.30;;;;;;5075221;28;20407;-75
2023/09/14 06:08:23;;;;;;;3.55;0.73;;;22.00;87.10;;;;;;5075999;28;20036;-75
2023/09/14 06:10:48;;;;;;;6.32;1.30;;;22.20;85.00;;;;;;5074639;28;20039;-75
2023/09/14 06:13:16;;;;;;;6.15;1.65;;;22.30;83.40;;;;;;5075647;28;20039;-74
2023/09/14 06:15:42;;;;;;;4.65;2.00;;;22.50;81.80;;;;;;5075459;28;20082;-74
2023/09/14 06:18:07;;;;;;;5.63;1.55;;;22.60;80.90;;;;;;5075687;28;20442;-75
2023/09/14 06:20:33;;;;;;;6.80;1.80;;;22.70;80.00;;;;;;5076572;28;20039;-75
2023/09/14 06:22:59;;;;;;;4.68;1.45;;;22.70;79.50;;;;;;5076048;28;20032;-74
2023/09/14 06:25:25;;;;;;;5.45;1.73;;;22.80;79.10;;;;;;5075681;28;20036;-74
2023/09/14 06:27:50;;;;;;;6.45;1.90;;;22.80;78.70;;;;;;5074469;28;20025;-76
2023/09/14 06:30:16;;;;;;;5.88;1.80;;;22.80;78.40;;;;;;5073345;28;20078;-76
2023/09/14 06:32:41;;;;;;;4.10;1.88;;;22.90;78.20;;;;;;5076062;28;20385;-75
2023/09/14 06:35:08;;;;;;;6.85;1.80;;;22.80;77.90;;;;;;5074234;28;20028;-81
2023/09/14 06:37:33;;;;;;;4.50;1.80;;;22.90;77.70;;;;;;5075820;28;20108;-83
2023/09/14 06:39:59;;;;;;;4.90;2.03;;;22.80;77.60;;;;;;5075412;28;20131;-83
2023/09/14 06:42:24;;;;;;;4.90;2.08;;;22.70;77.60;;;;;;5075868;28;20100;-81
2023/09/14 06:44:50;;;;;;;5.47;1.35;;;22.60;77.80;;;;;;5073450;28;20497;-82
2023/09/14 06:47:16;;;;;;;11.50;2.28;;;22.50;77.60;;;;;;5074925;28;20039;-82
2023/09/14 06:49:42;;;;;;;5.95;2.47;;;22.30;77.40;;;;;;5075532;28;20033;-82
2023/09/14 06:52:07;;;;;;;10.43;2.50;;;22.10;77.70;;;;;;5073773;28;20127;-83
2023/09/14 06:54:33;;;;;;;5.35;1.90;;;21.80;78.00;;;;;;5074262;28;20483;-83
2023/09/14 06:56:59;;;;;;;8.80;2.17;;;21.60;79.20;;;;;;5057620;28;20044;-82
2023/09/14 06:59:24;;;;;;;6.57;2.15;;;21.50;79.70;;;;;;5075263;28;20037;-81
2023/09/14 07:01:50;;;;;;;7.38;2.42;;;21.40;79.90;;;;;;5073128;28;20044;-82
2023/09/14 07:04:15;;;;;;;7.15;1.95;;;21.30;80.00;;;;;;5074114;28;20029;-82
2023/09/14 07:06:41;;;;;;;4.20;1.50;;;21.30;81.00;;;;;;5073963;28;20107;-82
2023/09/14 07:09:07;;;;;;;4.63;1.35;;;21.30;81.50;;;;;;5075169;28;20119;-83
2023/09/14 07:11:34;;;;;;;5.20;1.75;;;21.30;81.60;;;;;;5074647;28;20533;-81
2023/09/14 07:14:00;;;;;;;9.00;1.38;;;21.30;80.70;;;;;;5073837;28;20043;-81
2023/09/14 07:16:26;;;;;;;8.60;2.30;;;21.20;81.00;;;;;;5073369;28;20464;-82
2023/09/14 07:18:52;;;;;;;5.93;1.60;;;21.20;80.00;;;;;;5074143;28;20039;-82
2023/09/14 07:21:17;;;;;;;7.18;1.48;;;21.20;80.60;;;;;;5074635;28;20400;-82
2023/09/14 07:23:43;;;;;;;8.63;2.28;;;21.10;80.80;;;;;;5073083;28;20060;-80
2023/09/14 07:26:10;;;;;;;5.03;1.95;;;21.10;80.90;;;;;;5075111;28;20060;-81
2023/09/14 07:28:37;;;;;;;6.53;2.03;;;21.10;81.10;;;;;;5073110;28;20071;-80
2023/09/14 07:31:04;;;;;;;4.40;1.60;;;21.10;81.50;;;;;;5072505;28;20461;-81
2023/09/14 07:33:30;;;;;;;9.55;2.15;;;21.10;82.00;;;;;;5073803;28;20021;-81
2023/09/14 07:35:56;;;;;;;12.68;1.90;;;21.00;81.30;;;;;;5074317;28;20032;-82
2023/09/14 07:38:22;;;;;;;7.97;1.98;;;20.90;81.50;;;;;;5073843;28;20043;-81
2023/09/14 07:40:48;;;;;;;7.97;1.63;;;20.90;81.30;;;;;;5071703;28;20039;-81
2023/09/14 07:43:14;;;;;;;7.50;2.28;;;21.00;81.30;;;;;;5073527;28;20385;-80
2023/09/14 07:45:40;;;;;;;9.10;1.70;;;21.00;81.40;;;;;;5073190;28;20041;-80
2023/09/14 07:48:07;;;;;;;6.43;1.83;;;21.00;81.30;;;;;;5073146;28;20035;-78
2023/09/14 07:50:39;;;;;;;7.35;2.00;;;21.10;81.30;;;;;;5073055;28;20040;-80
2023/09/14 07:53:08;;;;;;;6.85;2.00;;;21.00;81.40;;;;;;5072006;28;20035;-80
2023/09/14 07:55:34;;;;;;;6.85;1.90;;;21.00;81.70;;;;;;5073918;28;20038;-80
2023/09/14 07:58:00;;;;;;;9.70;2.20;;;21.00;81.90;;;;;;5073573;28;20123;-79
2023/09/14 08:00:25;;;;;;;6.43;1.40;;;21.00;81.30;;;;;;5074068;28;20028;-81
2023/09/14 08:02:52;;;;;;;9.15;2.38;;;21.00;81.80;;;;;;5072030;28;20469;-81
2023/09/14 08:05:17;;;;;;;7.13;2.17;;;21.10;81.40;;;;;;5073613;28;20469;-80
2023/09/14 08:07:43;;;;;;;7.47;1.83;;;21.10;81.10;;;;;;5073465;28;20059;-81
2023/09/14 08:10:09;;;;;;;8.13;2.28;;;21.20;81.60;;;;;;5079071;28;20526;-82
2023/09/14 08:12:38;;;;;;;6.88;1.90;;;21.10;81.40;;;;;;5083487;28;20029;-81
2023/09/14 08:15:04;;;;;;;10.00;1.77;;;21.10;81.70;;;;;;5080381;28;20112;-80
2023/09/14 08:17:30;;;;;;;10.38;2.55;;;21.20;81.90;;;;;;5088439;28;20042;-80
2023/09/14 08:19:56;;;;;;;11.45;2.10;;;21.20;81.40;;;;;;5084375;28;20115;-78
2023/09/14 08:22:23;;;;;;;10.60;1.80;;;21.30;81.80;;;;;;5082883;28;20051;-80
2023/09/14 08:24:52;;;;;;;9.30;1.92;;;21.40;82.20;;;;;;5084801;28;20532;-80
2023/09/14 08:27:18;;;;;;;8.50;2.65;;;21.40;82.30;;;;;;5084088;28;20413;-79
2023/09/14 08:29:45;;;;;;;8.77;2.28;;;21.40;82.50;;;;;;5081045;28;20037;-79
2023/09/14 08:32:11;;;;;;;8.50;2.15;;;21.40;82.60;;;;;;5084054;28;20039;-79
2023/09/14 08:34:37;;;;;;;4.97;2.03;;;21.50;81.90;;;;;;5081058;28;20571;-81
2023/09/14 08:37:03;;;;;;;13.98;2.75;;;21.60;82.00;;;;;;5073068;28;20025;-80
2023/09/14 08:39:29;;;;;;;8.95;2.15;;;21.60;80.10;;;;;;5073394;28;20511;-82
2023/09/14 08:41:55;;;;;;;7.63;2.10;;;21.60;80.30;;;;;;5073824;28;20057;-79
2023/09/14 08:44:21;;;;;;;11.15;2.67;;;21.60;80.10;;;;;;5072359;28;20115;-80
2023/09/14 08:46:48;;;;;;;10.27;2.65;;;21.60;80.00;;;;;;5070402;28;20063;-81
2023/09/14 08:49:19;;;;;;;7.70;2.70;;;21.70;79.80;;;;;;5073604;28;20029;-80
2023/09/14 08:51:46;;;;;;;8.38;2.83;;;21.80;80.00;;;;;;5076432;28;20099;-80
2023/09/14 08:54:12;;;;;;;12.40;3.90;;;21.90;79.30;;;;;;5079773;28;20099;-82
2023/09/14 08:56:39;;;;;;;10.60;3.05;;;22.00;78.50;;;;;;5077573;28;20020;-81
2023/09/14 08:59:07;;;;;;;8.00;2.05;;;22.00;78.80;;;;;;5083347;28;20037;-80
2023/09/14 09:01:36;;;;;;;8.77;2.58;;;22.00;78.90;;;;;;5077400;28;20048;-80
2023/09/14 09:04:02;;;;;;;15.60;2.83;;;22.10;79.50;;;;;;5075679;28;20036;-80
2023/09/14 09:06:28;;;;;;;8.57;2.33;;;22.20;78.70;;;;;;5076886;28;20025;-80
2023/09/14 09:08:56;;;;;;;5.95;2.00;;;22.30;78.70;;;;;;5075638;28;20092;-81
2023/09/14 09:11:22;;;;;;;10.80;2.65;;;22.40;78.40;;;;;;5074224;28;20025;-81
2023/09/14 09:13:49;;;;;;;10.80;2.65;;;22.40;78.00;;;;;;5079762;28;20362;-80
2023/09/14 09:16:15;;;;;;;8.10;2.50;;;22.40;78.40;;;;;;5084185;28;20036;-78
2023/09/14 09:19:06;;;;;;;6.57;1.80;;;22.50;78.50;;;;;;5079564;28;20465;-78
2023/09/14 09:21:34;;;;;;;9.00;3.15;;;22.60;78.50;;;;;;5079337;28;20040;-79
2023/09/14 09:24:03;;;;;;;7.90;2.70;;;22.60;77.50;;;;;;5078284;28;20074;-80
2023/09/14 09:26:35;;;;;;;7.15;2.50;;;22.70;77.70;;;;;;5092770;28;20035;-80
2023/09/14 09:29:16;;;;;;;7.97;2.95;;;22.80;77.40;;;;;;5091591;28;20109;-79
2023/09/14 09:31:47;;;;;;;7.03;2.50;;;22.80;77.90;;;;;;5085143;28;20024;-80
2023/09/14 09:34:13;;;;;;;4.97;1.88;;;22.90;77.10;;;;;;5088454;28;20039;-80
2023/09/14 09:36:39;;;;;;;6.78;2.28;;;22.90;77.10;;;;;;5086728;28;20036;-82
2023/09/14 09:39:06;;;;;;;7.55;2.22;;;22.90;77.50;;;;;;5081606;28;20083;-82
2023/09/14 09:41:33;;;;;;;7.00;3.17;;;23.10;77.10;;;;;;5078461;28;20048;-80
2023/09/14 09:43:59;;;;;;;7.32;2.45;;;23.30;77.00;;;;;;5075933;28;20451;-81
2023/09/14 09:46:24;;;;;;;9.25;2.40;;;23.30;76.10;;;;;;5075851;28;20100;-82
2023/09/14 09:48:50;;;;;;;6.03;2.08;;;23.40;76.60;;;;;;5076040;28;20031;-81
2023/09/14 09:51:21;;;;;;;6.88;2.40;;;23.50;76.80;;;;;;5078415;28;20431;-83
2023/09/14 09:54:06;;;;;;;6.30;2.70;;;23.50;75.40;;;;;;5060164;28;20090;-82
2023/09/14 09:56:36;;;;;;;8.82;2.67;;;23.50;75.40;;;;;;5072803;28;20473;-82
2023/09/14 09:59:05;;;;;;;5.72;1.80;;;23.40;76.30;;;;;;5075367;28;20051;-83
2023/09/14 10:01:31;;;;;;;5.38;1.67;;;23.30;76.40;;;;;;5075079;28;20059;-83
2023/09/14 10:03:59;;;;;;;8.13;2.28;;;23.30;76.60;;;;;;5076103;28;20032;-82
2023/09/14 10:06:25;;;;;;;4.50;1.80;;;23.30;76.40;;;;;;5058399;28;20123;-83
2023/09/14 10:08:56;;;;;;;6.85;1.90;;;23.20;76.70;;;;;;5075715;28;20052;-82
2023/09/14 10:11:24;;;;;;;7.20;2.10;;;23.20;76.40;;;;;;5075400;28;20036;-82
2023/09/14 10:13:51;;;;;;;4.18;2.17;;;23.20;76.50;;;;;;5075404;28;20067;-82
2023/09/14 10:16:23;;;;;;;4.78;1.67;;;23.10;77.30;;;;;;5074938;28;20488;-83
2023/09/14 10:18:52;;;;;;;4.60;1.40;;;23.00;77.80;;;;;;5075596;28;20089;-83
2023/09/14 10:21:19;;;;;;;4.57;1.48;;;23.10;77.50;;;;;;5074178;28;20028;-81
2023/09/14 10:23:45;;;;;;;6.25;2.15;;;23.00;77.90;;;;;;5076684;28;20103;-82
2023/09/14 10:26:11;;;;;;;6.40;1.83;;;23.00;76.60;;;;;;5075210;28;20040;-81
2023/09/14 10:28:38;;;;;;;5.80;2.00;;;22.90;76.80;;;;;;5075187;28;20508;-83
2023/09/14 10:31:06;;;;;;;7.97;2.00;;;23.20;76.80;;;;;;5079798;28;20027;-82
2023/09/14 10:33:32;;;;;;;5.93;1.63;;;23.30;76.00;;;;;;5098518;28;20042;-82
2023/09/14 10:36:00;;;;;;;4.70;1.40;;;23.10;75.90;;;;;;5100868;28;20024;-82
2023/09/14 10:38:28;;;;;;;6.60;2.15;;;23.10;76.90;;;;;;5096275;28;20399;-81
2023/09/14 10:40:53;;;;;;;5.57;1.48;;;23.10;77.50;;;;;;5089488;28;20061;-83
2023/09/14 10:43:19;;;;;;;2.88;1.23;;;23.10;77.80;;;;;;5082740;28;20060;-83
2023/09/14 10:45:48;;;;;;;5.95;1.48;;;23.20;78.00;;;;;;5082086;28;20107;-83
2023/09/14 10:48:19;;;;;;;3.83;1.80;;;23.20;78.30;;;;;;5075134;28;20047;-85
2023/09/14 10:50:45;;;;;;;3.63;1.40;;;23.30;77.70;;;;;;5076563;28;20445;-80
2023/09/14 10:53:14;;;;;;;7.50;1.90;;;23.40;75.90;;;;;;5075715;28;20274;-83
2023/09/14 10:55:42;;;;;;;4.13;1.75;;;23.40;75.90;;;;;;5076065;28;20043;-82
2023/09/14 10:58:12;;;;;;;5.30;1.77;;;23.30;75.50;;;;;;5077052;28;20119;-83
2023/09/14 11:00:42;;;;;;;8.10;2.40;;;23.40;75.60;;;;;;5077404;28;20033;-83
2023/09/14 11:03:09;;;;;;;6.90;2.22;;;23.50;77.50;;;;;;5075609;28;20025;-82
2023/09/14 11:05:42;;;;;;;6.50;1.73;;;23.60;75.20;;;;;;5075510;28;20066;-82
2023/09/14 11:08:08;;;;;;;4.78;1.20;;;23.70;72.80;;;;;;5075037;28;20040;-84
2023/09/14 11:10:34;;;;;;;7.20;1.80;;;23.90;72.90;;;;;;5075943;28;20043;-79
2023/09/14 11:13:18;;;;;;;6.25;1.63;;;24.00;74.00;;;;;;5080998;28;20107;-81
2023/09/14 11:15:46;;;;;;;3.22;1.52;;;24.00;73.20;;;;;;5082121;28;20054;-81
2023/09/14 11:18:16;;;;;;;4.90;1.38;;;24.00;73.00;;;;;;5081090;28;20039;-80
2023/09/14 11:20:44;;;;;;;8.02;1.85;;;23.90;73.70;;;;;;5079332;28;20055;-78
2023/09/14 11:23:10;;;;;;;3.95;1.27;;;23.80;72.80;;;;;;5079743;28;20116;-79
2023/09/14 11:25:41;;;;;;;3.22;1.00;;;23.80;73.80;;;;;;5080372;28;20118;-79
2023/09/14 11:28:20;;;;;;;3.60;1.20;;;23.80;74.20;;;;;;5079185;28;20021;-80
2023/09/14 11:30:49;;;;;;;4.47;1.50;;;23.70;74.30;;;;;;5079028;28;20024;-79
2023/09/14 11:33:16;;;;;;;6.55;1.08;;;23.70;74.60;;;;;;5078705;28;20020;-80
2023/09/14 11:35:50;;;;;;;4.25;1.38;;;23.70;74.90;;;;;;5081072;28;20020;-80
2023/09/14 11:38:19;;;;;;;4.25;1.20;;;23.60;74.30;;;;;;5080197;28;20024;-79
2023/09/14 11:40:45;;;;;;;2.28;1.08;;;23.60;74.70;;;;;;5077904;28;20067;-80
2023/09/14 11:43:24;;;;;;;4.10;1.58;;;23.50;75.40;;;;;;5079344;28;20024;-80
2023/09/14 11:45:56;;;;;;;4.18;1.55;;;23.50;75.00;;;;;;5080943;28;20084;-81
2023/09/14 11:48:23;;;;;;;4.13;1.40;;;23.50;73.70;;;;;;5082310;28;20017;-81
2023/09/14 11:50:50;;;;;;;2.97;1.20;;;23.40;74.70;;;;;;5083090;28;20080;-80
2023/09/14 11:53:18;;;;;;;3.17;1.20;;;23.50;75.00;;;;;;5083778;28;20050;-80
2023/09/14 11:55:48;;;;;;;6.15;1.20;;;23.40;75.00;;;;;;5086434;28;20464;-81
2023/09/14 11:58:14;;;;;;;2.83;1.15;;;23.50;75.50;;;;;;5083322;28;20020;-81
2023/09/14 12:00:43;;;;;;;3.08;1.00;;;23.40;74.80;;;;;;5081734;28;20422;-83
2023/09/14 12:03:09;;;;;;;2.78;1.55;;;23.40;75.30;;;;;;5081272;28;20102;-83
2023/09/14 12:05:36;;;;;;;4.57;1.70;;;23.40;75.30;;;;;;5083644;28;20111;-82
2023/09/14 12:08:12;;;;;;;3.90;1.40;;;23.40;74.80;;;;;;5083939;28;20506;-83
2023/09/14 12:10:39;;;;;;;3.08;1.55;;;23.40;75.10;;;;;;5081631;28;20050;-83
2023/09/14 12:13:15;;;;;;;3.22;1.50;;;23.40;75.30;;;;;;5083867;28;20035;-82
2023/09/14 12:15:46;;;;;;;2.92;1.10;;;23.40;75.70;;;;;;5081599;28;20524;-82
2023/09/14 12:18:13;;;;;;;3.10;1.20;;;23.50;75.70;;;;;;5081170;28;20033;-81
2023/09/14 12:20:43;;;;;;;5.93;1.83;;;23.60;75.70;;;;;;5082331;28;20029;-83
2023/09/14 12:23:10;;;;;;;3.58;1.45;;;23.80;74.80;;;;;;5082768;28;20111;-81
2023/09/14 12:25:40;;;;;;;6.43;1.50;;;24.00;74.00;;;;;;5080697;28;20024;-82
2023/09/14 12:28:09;;;;;;;4.03;1.50;;;24.20;73.00;;;;;;5083553;28;20029;-82
2023/09/14 12:30:35;;;;;;;4.78;1.48;;;24.40;69.60;;;;;;5084275;28;20050;-82
2023/09/14 12:33:03;;;;;;;4.65;1.48;;;24.40;70.60;;;;;;5083423;28;20391;-82
2023/09/14 12:35:30;;;;;;;3.08;1.40;;;24.60;71.60;;;;;;5082553;28;20024;-83
2023/09/14 12:38:06;;;;;;;5.40;1.40;;;24.70;70.30;;;;;;5080758;28;20036;-81
2023/09/14 12:40:36;;;;;;;7.95;1.58;;;24.60;68.90;;;;;;5081570;28;20552;-82
2023/09/14 12:43:03;;;;;;;3.55;1.10;;;24.60;71.40;;;;;;5084391;28;20477;-83
2023/09/14 12:45:31;;;;;;;4.75;2.15;;;24.80;70.80;;;;;;5083006;28;20032;-82